Largo, MD

1:03 AM EST on February 11, 2016 (GMT -0500)
Brock Hall | | Change Station
CLOSE
Current Station
Personal Weather Station
Location: Upper Marlboro, MD
Elevation: 154 ft
Nearby Weather Stations

Elev 154 ft 38.84 °N, 76.75 °W | Updated 8 seconds ago

Partly Cloudy
Partly Cloudy
24.3 °F
Feels Like 15 °F
N
9.4
Wind Variable Wind from West

Today
High -- | Low -- °F
--% Chance of Precip.
Yesterday
High -- | Low -- °F
Precip. -- in
Pressure 29.98 in
Visibility 10.0 miles
Clouds Clear
Windchill 15 °F
Dew Point 8 °F
Humidity 50%
Rainfall 0.00 in
Snow Depth Not available.
7:03 AM 5:39 PM
Waxing Crescent, 9% visible
METAR KADW 110558Z AUTO 29011KT 10SM CLR M04/M14 A2995 RMK AO2 PK WND 27027/00 SLP152 T10451136 11022 21045 52013
Pressure 29.98 in
Visibility 10.0 miles
Clouds Clear
Windchill 15 °F
Dew Point 8 °F
Humidity 50%
Rainfall 0.00 in
Snow Depth Not available.
7:03 AM 5:39 PM
Waxing Crescent, 9% visible
METAR KADW 110558Z AUTO 29011KT 10SM CLR M04/M14 A2995 RMK AO2 PK WND 27027/00 SLP152 T10451136 11022 21045 52013

10-Day Weather Forecast

Almanac

Astronomy

Feb. 11, 2016 Rise Set
Actual Time
Civil Twilight
Nautical Twilight
Astronomical Twilight
Moon
Length of Visible Light
Length of Day
Tomorrow will be .
, % of the Moon is Illuminated

Today's Extremes

State Highs State Lows

Community

WunderPhotos

Upload Photos

1,892,028 photos uploaded!

WunderBlog® & News

Nearby

Air Quality

  Air Quality AQ Index Pollutant
Not available.

Snow Depth

Station Depth Elevation

Earthquake Activity

City Distance Mag. Time & Date
Minimum magnitude displayed is 2.5.

Coastal Water Temperatures

Place Temperature

Stations

Nearby Weather Stations

Station Location Temp. Windchill Dew Point Humidity Wind Precip. Elev Updated Type
                   

Watches & Warnings

There are currently no watches in effect.